Time;durP1;ratioP1;P1;durP2;ratioP2;P2;SDS_P1;SDS_P2;PMS_P1;PMS_P2;Temp;Humidity;BMP_temperature;BMP_pressure;BME280_temperature;BME280_humidity;BME280_pressure;Samples;Min_cycle;Max_cycle;Signal;HPM_P1;HPM_P2
2022/04/08 00:02:03;;;;;;;0.20;0.20;;;;;;;19.28;39.96;99302.72;5099569;28;20130;-30
2022/04/08 00:04:30;;;;;;;0.10;0.10;;;;;;;19.29;40.01;99298.00;5116373;28;20506;-29
2022/04/08 00:06:56;;;;;;;0.20;0.20;;;;;;;19.28;39.94;99302.72;5111980;28;20130;-30
2022/04/08 00:09:22;;;;;;;0.20;0.20;;;;;;;19.28;40.08;99312.94;5115774;28;20066;-30
2022/04/08 00:11:48;;;;;;;0.20;0.20;;;;;;;19.27;39.97;99312.13;5116488;28;20047;-29
2022/04/08 00:14:14;;;;;;;0.20;0.20;;;;;;;19.27;40.02;99317.66;5096051;28;20040;-28
2022/04/08 00:16:40;;;;;;;0.20;0.20;;;;;;;19.27;40.02;99312.13;5113673;28;20104;-30
2022/04/08 00:19:06;;;;;;;0.20;0.20;;;;;;;19.27;40.12;99317.66;5121941;27;20450;-30
2022/04/08 00:21:32;;;;;;;0.20;0.20;;;;;;;19.26;40.28;99329.84;5112427;28;20401;-28
2022/04/08 00:23:57;;;;;;;0.20;0.20;;;;;;;19.28;40.00;99335.84;5096988;28;20039;-29
2022/04/08 00:26:23;;;;;;;0.20;0.20;;;;;;;19.27;40.02;99348.00;5119042;28;20057;-29
2022/04/08 00:28:49;;;;;;;0.20;0.20;;;;;;;19.27;39.97;99338.94;5114902;28;20061;-30
2022/04/08 00:31:15;;;;;;;0.20;0.20;;;;;;;19.28;40.28;99348.81;5115297;28;20144;-30
2022/04/08 00:33:40;;;;;;;0.20;0.20;;;;;;;19.26;40.33;99343.63;5116714;28;20039;-28
2022/04/08 00:36:06;;;;;;;0.20;0.20;;;;;;;19.27;39.99;99350.78;5114093;28;20490;-28
2022/04/08 00:38:32;;;;;;;0.20;0.20;;;;;;;19.27;40.26;99358.25;5116267;28;20047;-29
2022/04/08 00:40:59;;;;;;;0.20;0.20;;;;;;;19.25;40.26;99350.25;5112545;28;20043;-28
2022/04/08 00:43:34;;;;;;;0.20;0.20;;;;;;;19.25;40.38;99361.31;5115603;28;20046;-29
2022/04/08 00:46:01;;;;;;;0.20;0.20;;;;;;;19.26;40.22;99360.19;5099081;28;20067;-28
2022/04/08 00:48:27;;;;;;;0.20;0.20;;;;;;;19.25;40.18;99368.78;5117406;28;20474;-28
2022/04/08 00:50:53;;;;;;;0.20;0.20;;;;;;;19.23;39.94;99369.09;5120224;28;20047;-29
2022/04/08 00:53:19;;;;;;;0.20;0.20;;;;;;;19.24;40.36;99386.47;5118259;28;20040;-28
2022/04/08 00:55:45;;;;;;;0.20;0.20;;;;;;;19.25;40.20;99374.28;5118280;28;20469;-28
2022/04/08 00:58:10;;;;;;;0.20;0.20;;;;;;;19.26;39.98;99389.75;5120753;28;20468;-31
2022/04/08 01:00:38;;;;;;;0.20;0.20;;;;;;;19.25;40.18;99391.66;5114251;28;20054;-29
2022/04/08 01:03:04;;;;;;;0.20;0.20;;;;;;;19.25;40.09;99397.19;5094286;28;20526;-29
2022/04/08 01:05:31;;;;;;;0.20;0.20;;;;;;;19.24;40.07;99392.81;5118334;28;20095;-28
2022/04/08 01:07:57;;;;;;;0.20;0.20;;;;;;;19.24;40.30;99398.31;5102176;28;20545;-29
2022/04/08 01:10:23;;;;;;;0.20;0.20;;;;;;;19.23;40.34;99407.75;5116202;28;20050;-29
2022/04/08 01:12:49;;;;;;;0.20;0.20;;;;;;;19.23;40.01;99410.50;5119766;28;20035;-29
2022/04/08 01:15:17;;;;;;;0.20;0.20;;;;;;;19.23;40.15;99416.03;5100844;28;20043;-30
2022/04/08 01:17:43;;;;;;;0.20;0.20;;;;;;;19.21;40.24;99423.81;5092109;28;20099;-28
2022/04/08 01:20:09;;;;;;;0.20;0.20;;;;;;;19.21;40.02;99426.56;5118252;27;20051;-29
2022/04/08 01:22:35;;;;;;;0.20;0.20;;;;;;;19.22;40.07;99424.63;5124242;28;20126;-29
2022/04/08 01:25:03;;;;;;;0.20;0.20;;;;;;;19.22;40.14;99430.16;5099828;28;20102;-29
2022/04/08 01:27:29;;;;;;;0.20;0.20;;;;;;;19.24;40.06;99433.38;5093188;28;20079;-30
2022/04/08 01:29:55;;;;;;;0.20;0.20;;;;;;;19.23;40.19;99429.81;5101705;28;20432;-30
2022/04/08 01:32:20;;;;;;;0.20;0.20;;;;;;;19.23;40.14;99429.00;5118187;28;20126;-30
2022/04/08 01:34:49;;;;;;;0.20;0.20;;;;;;;19.22;40.21;99438.44;5098154;28;20505;-29
2022/04/08 01:37:15;;;;;;;0.20;0.20;;;;;;;19.21;40.32;99448.66;5117907;28;20098;-29
2022/04/08 01:39:41;;;;;;;0.20;0.20;;;;;;;19.23;40.30;99451.09;5116942;28;20139;-29
2022/04/08 01:42:08;;;;;;;0.20;0.20;;;;;;;19.22;40.21;99455.00;5103447;28;20138;-29
2022/04/08 01:44:35;;;;;;;0.20;0.20;;;;;;;19.22;39.99;99455.00;5116184;28;20130;-28
2022/04/08 01:47:01;;;;;;;0.20;0.20;;;;;;;19.22;40.22;99472.34;5085432;28;20166;-29
2022/04/08 01:49:26;;;;;;;0.20;0.20;;;;;;;19.21;40.04;99470.72;5097958;28;20393;-29
2022/04/08 01:51:52;;;;;;;0.20;0.20;;;;;;;19.22;39.94;99474.31;5119709;28;20047;-30
2022/04/08 01:54:18;;;;;;;0.20;0.20;;;;;;;19.21;40.11;99476.25;5104207;28;20469;-29
2022/04/08 01:56:43;;;;;;;0.20;0.20;;;;;;;19.22;40.33;99474.31;5118229;28;20048;-30
2022/04/08 01:59:09;;;;;;;0.20;0.20;;;;;;;19.20;40.07;99476.56;5118163;28;20047;-30
2022/04/08 02:01:35;;;;;;;0.20;0.20;;;;;;;19.21;40.17;99475.41;5116873;28;20087;-29
2022/04/08 02:04:01;;;;;;;0.20;0.20;;;;;;;19.21;40.30;99489.22;5120151;28;20489;-28
2022/04/08 02:06:27;;;;;;;0.20;0.20;;;;;;;19.21;40.25;99475.41;5117566;28;20043;-29
2022/04/08 02:08:53;;;;;;;0.20;0.20;;;;;;;19.20;40.29;99488.41;5123793;28;20473;-29
2022/04/08 02:11:20;;;;;;;0.20;0.20;;;;;;;19.20;40.07;99484.84;5118642;28;20074;-30
2022/04/08 02:13:46;;;;;;;0.20;0.20;;;;;;;19.20;40.21;99495.88;5123560;28;20466;-30
2022/04/08 02:16:12;;;;;;;0.20;0.20;;;;;;;19.23;40.35;99503.53;5116207;28;20075;-29
2022/04/08 02:18:38;;;;;;;0.20;0.20;;;;;;;19.21;40.07;99505.78;5101625;27;20105;-29
2022/04/08 02:21:04;;;;;;;0.20;0.20;;;;;;;19.19;40.28;99510.81;5097609;28;20047;-29
2022/04/08 02:23:31;;;;;;;0.20;0.20;;;;;;;19.20;40.07;99509.66;5101347;28;20112;-29
2022/04/08 02:25:57;;;;;;;0.20;0.20;;;;;;;19.19;40.16;99519.91;5119457;28;20081;-28
2022/04/08 02:28:22;;;;;;;0.20;0.20;;;;;;;19.20;40.18;99518.75;5116295;28;20048;-29
2022/04/08 02:30:48;;;;;;;0.20;0.20;;;;;;;19.19;40.31;99519.91;5115983;28;20052;-29
2022/04/08 02:33:13;;;;;;;0.20;0.20;;;;;;;19.19;40.30;99524.59;5119720;28;20048;-29
2022/04/08 02:35:39;;;;;;;0.20;0.20;;;;;;;19.19;40.12;99524.59;5115091;28;20138;-29
2022/04/08 02:38:05;;;;;;;0.20;0.20;;;;;;;19.19;40.17;99521.84;5102034;28;20046;-29
2022/04/08 02:40:30;;;;;;;0.20;0.20;;;;;;;19.20;40.10;99526.22;5116797;28;20104;-29
2022/04/08 02:42:56;;;;;;;0.20;0.20;;;;;;;19.18;40.12;99531.25;5121751;28;20061;-28
2022/04/08 02:45:22;;;;;;;0.20;0.20;;;;;;;19.18;40.25;99518.28;5118202;28;20037;-28
2022/04/08 02:47:47;;;;;;;0.20;0.20;;;;;;;19.18;40.17;99526.56;5116603;28;20046;-28
2022/04/08 02:50:13;;;;;;;0.20;0.20;;;;;;;19.19;40.24;99532.88;5116774;28;20047;-28
2022/04/08 02:52:39;;;;;;;0.20;0.20;;;;;;;19.18;40.26;99523.78;5114720;28;20058;-30
2022/04/08 02:55:05;;;;;;;0.20;0.20;;;;;;;19.17;40.43;99530.44;5099742;28;20094;-30
2022/04/08 02:57:30;;;;;;;0.20;0.20;;;;;;;19.19;40.38;99535.66;5084769;28;20044;-30
2022/04/08 02:59:56;;;;;;;0.20;0.20;;;;;;;19.18;40.30;99534.03;5114729;28;20036;-29
2022/04/08 03:02:22;;;;;;;0.20;0.20;;;;;;;19.18;40.13;99536.78;5097702;28;20062;-28
2022/04/08 03:04:48;;;;;;;0.20;0.20;;;;;;;19.17;40.14;99538.72;5118890;28;20053;-29
2022/04/08 03:07:13;;;;;;;0.20;0.20;;;;;;;19.17;40.05;99538.72;5119031;27;20046;-29
2022/04/08 03:09:39;;;;;;;0.20;0.20;;;;;;;19.18;40.31;99534.84;5118429;28;20035;-29
2022/04/08 03:12:05;;;;;;;0.20;0.20;;;;;;;19.18;40.36;99539.53;5124620;28;20043;-28
2022/04/08 03:14:31;;;;;;;0.20;0.20;;;;;;;19.18;40.38;99543.09;5118486;28;21848;-28
2022/04/08 03:16:57;;;;;;;0.20;0.20;;;;;;;19.17;40.06;99535.13;5109329;28;20128;-29
2022/04/08 03:19:23;;;;;;;0.20;0.20;;;;;;;19.17;40.44;99535.97;5110534;27;20138;-30
2022/04/08 03:21:48;;;;;;;0.17;0.17;;;;;;;19.17;40.28;99527.69;5122594;28;20104;-28
2022/04/08 03:24:15;;;;;;;0.22;0.22;;;;;;;19.16;40.24;99533.50;5116445;28;20039;-29
2022/04/08 03:26:41;;;;;;;0.20;0.20;;;;;;;19.16;40.17;99533.50;5095611;28;20444;-29
2022/04/08 03:29:06;;;;;;;0.20;0.20;;;;;;;19.17;40.30;99535.13;5117252;28;20087;-28
2022/04/08 03:31:32;;;;;;;0.20;0.20;;;;;;;19.16;40.11;99534.31;5100391;28;20047;-29
2022/04/08 03:33:58;;;;;;;0.20;0.20;;;;;;;19.18;40.19;99531.25;5120896;28;20050;-28
2022/04/08 03:36:23;;;;;;;0.20;0.20;;;;;;;19.16;40.15;99531.56;5116840;28;20051;-29
2022/04/08 03:38:49;;;;;;;0.20;0.20;;;;;;;19.16;40.25;99539.84;5116047;28;20052;-30
2022/04/08 03:41:15;;;;;;;0.20;0.20;;;;;;;19.17;40.05;99540.66;5116445;28;20080;-28
2022/04/08 03:43:41;;;;;;;0.20;0.20;;;;;;;19.16;40.42;99541.78;5115603;28;20071;-31
2022/04/08 03:46:07;;;;;;;0.20;0.20;;;;;;;19.16;40.05;99552.81;5116711;28;20436;-31
2022/04/08 03:48:32;;;;;;;0.20;0.20;;;;;;;19.16;40.45;99550.06;5097664;28;20040;-32
2022/04/08 03:50:58;;;;;;;0.20;0.20;;;;;;;19.16;40.41;99555.59;5117494;28;20051;-31
2022/04/08 03:53:24;;;;;;;0.20;0.20;;;;;;;19.15;40.24;99559.47;5117267;28;20065;-31
2022/04/08 03:55:49;;;;;;;0.20;0.20;;;;;;;19.15;40.15;99565.00;5114223;28;20142;-30
2022/04/08 03:58:15;;;;;;;0.20;0.20;;;;;;;19.16;40.39;99563.84;5120130;28;20043;-31
2022/04/08 04:00:42;;;;;;;0.20;0.20;;;;;;;19.15;40.27;99565.00;5113387;28;20126;-32
2022/04/08 04:03:07;;;;;;;0.20;0.20;;;;;;;19.15;40.21;99570.50;5103817;28;20071;-32
2022/04/08 04:05:39;;;;;;;0.20;0.20;;;;;;;19.16;40.42;99572.94;5112241;28;20123;-31
2022/04/08 04:08:08;;;;;;;0.20;0.20;;;;;;;19.16;40.21;99570.19;5117370;28;20412;-31
2022/04/08 04:10:33;;;;;;;0.20;0.20;;;;;;;19.16;40.27;99569.38;5115908;28;20078;-30
2022/04/08 04:12:59;;;;;;;0.20;0.20;;;;;;;19.15;40.45;99570.50;5114690;28;20048;-30
2022/04/08 04:15:25;;;;;;;0.20;0.20;;;;;;;19.14;40.23;99571.66;5118678;28;20130;-31
2022/04/08 04:17:50;;;;;;;0.20;0.20;;;;;;;19.15;40.24;99576.03;5112398;28;20044;-32
2022/04/08 04:20:16;;;;;;;0.20;0.20;;;;;;;19.15;40.21;99581.56;5114766;27;20139;-31
2022/04/08 04:22:42;;;;;;;0.20;0.20;;;;;;;19.15;40.46;99584.31;5116259;28;20047;-32
2022/04/08 04:25:08;;;;;;;0.20;0.20;;;;;;;19.15;40.55;99592.59;5118413;28;20126;-30
2022/04/08 04:27:33;;;;;;;0.20;0.20;;;;;;;19.15;40.47;99587.06;5116907;28;20050;-31
2022/04/08 04:29:59;;;;;;;0.20;0.20;;;;;;;19.13;40.42;99573.59;5120512;28;20466;-31
2022/04/08 04:32:25;;;;;;;0.20;0.20;;;;;;;19.14;40.18;99579.94;5123696;28;20051;-30
2022/04/08 04:34:51;;;;;;;0.20;0.20;;;;;;;19.13;40.29;99568.06;5119071;28;20086;-31
2022/04/08 04:37:16;;;;;;;0.20;0.20;;;;;;;19.14;40.46;99569.69;5118919;28;20096;-31
2022/04/08 04:39:42;;;;;;;0.20;0.20;;;;;;;19.13;40.55;99559.81;5121407;28;20055;-31
2022/04/08 04:42:08;;;;;;;0.20;0.20;;;;;;;19.13;40.21;99570.00;5119553;28;20049;-31
2022/04/08 04:44:34;;;;;;;0.20;0.20;;;;;;;19.14;40.28;99566.13;5119440;28;20374;-30
2022/04/08 04:47:00;;;;;;;0.28;0.28;;;;;;;19.14;40.28;99577.97;5124670;28;20101;-31
2022/04/08 04:49:25;;;;;;;0.20;0.20;;;;;;;19.14;40.42;99575.22;5102870;28;20576;-31
2022/04/08 04:51:53;;;;;;;0.20;0.20;;;;;;;19.13;40.28;99573.59;5124574;28;20039;-30
2022/04/08 04:54:19;;;;;;;0.20;0.20;;;;;;;19.13;40.17;99578.28;5119704;28;20360;-30
2022/04/08 04:56:45;;;;;;;0.20;0.20;;;;;;;19.13;40.29;99586.56;5118093;28;20061;-30
2022/04/08 04:59:11;;;;;;;0.20;0.20;;;;;;;19.15;40.30;99592.59;5116260;28;20052;-31
2022/04/08 05:01:36;;;;;;;0.20;0.20;;;;;;;19.12;40.23;99596.78;5085116;28;20472;-30
2022/04/08 05:04:02;;;;;;;0.20;0.20;;;;;;;19.13;40.15;99594.84;5120002;28;20039;-30
2022/04/08 05:06:28;;;;;;;0.20;0.20;;;;;;;19.12;40.40;99599.53;5117224;28;20470;-30
2022/04/08 05:08:53;;;;;;;0.20;0.20;;;;;;;19.13;40.11;99601.19;5121060;28;20051;-33
2022/04/08 05:11:19;;;;;;;0.20;0.20;;;;;;;19.13;40.38;99605.88;5124960;28;20387;-31
2022/04/08 05:13:45;;;;;;;0.20;0.20;;;;;;;19.13;40.30;99606.72;5119363;28;20539;-32
2022/04/08 05:16:10;;;;;;;0.20;0.20;;;;;;;19.13;40.31;99615.00;5120471;28;20394;-32
2022/04/08 05:18:37;;;;;;;0.20;0.20;;;;;;;19.14;40.39;99626.84;5116572;28;20047;-30
2022/04/08 05:21:03;;;;;;;0.20;0.20;;;;;;;19.12;40.40;99613.34;5119659;28;20075;-32
2022/04/08 05:23:29;;;;;;;0.20;0.20;;;;;;;19.13;40.21;99619.66;5120287;28;20044;-30
2022/04/08 05:25:56;;;;;;;0.20;0.20;;;;;;;19.12;40.23;99605.06;5116900;28;20043;-29
2022/04/08 05:28:22;;;;;;;0.20;0.20;;;;;;;19.12;40.27;99609.75;5104812;28;20066;-28
2022/04/08 05:30:48;;;;;;;0.20;0.20;;;;;;;19.12;40.35;99616.09;5119653;28;20482;-30
2022/04/08 05:33:15;;;;;;;0.20;0.20;;;;;;;19.13;40.22;99615.00;5120179;28;20051;-29
2022/04/08 05:35:40;;;;;;;0.20;0.20;;;;;;;19.12;40.23;99616.09;5116192;28;20043;-30
2022/04/08 05:38:06;;;;;;;0.20;0.20;;;;;;;19.12;40.39;99618.84;5115610;28;20039;-30
2022/04/08 05:40:32;;;;;;;0.20;0.20;;;;;;;19.12;40.54;99618.84;5115294;28;20138;-29
2022/04/08 05:42:57;;;;;;;0.20;0.20;;;;;;;19.13;40.41;99616.91;5114082;28;20044;-29
2022/04/08 05:45:23;;;;;;;0.20;0.20;;;;;;;19.12;40.29;99620.81;5122381;28;20045;-30
2022/04/08 05:47:50;;;;;;;0.20;0.20;;;;;;;19.12;40.47;99618.03;5118221;28;20040;-31
2022/04/08 05:50:18;;;;;;;0.20;0.20;;;;;;;19.13;40.18;99616.91;5103534;28;20078;-32
2022/04/08 05:52:45;;;;;;;0.20;0.20;;;;;;;19.12;40.35;99616.09;5118591;28;20092;-31
2022/04/08 05:55:11;;;;;;;0.20;0.20;;;;;;;19.12;40.15;99618.84;5119265;28;20083;-30
2022/04/08 05:57:40;;;;;;;0.20;0.20;;;;;;;19.13;40.20;99616.91;5120637;28;20050;-30
2022/04/08 06:00:10;;;;;;;0.20;0.20;;;;;;;19.13;40.29;99608.63;5115719;28;20083;-30
2022/04/08 06:02:36;;;;;;;0.20;0.20;;;;;;;19.10;40.14;99612.84;5087091;28;20130;-32
2022/04/08 06:05:02;;;;;;;0.20;0.20;;;;;;;19.11;40.21;99606.19;5115886;28;20126;-31
2022/04/08 06:07:28;;;;;;;0.20;0.20;;;;;;;19.10;40.08;99604.56;5112542;28;20047;-31
2022/04/08 06:09:56;;;;;;;0.20;0.20;;;;;;;19.10;40.23;99612.84;5097356;28;20035;-30
2022/04/08 06:12:22;;;;;;;0.20;0.20;;;;;;;19.12;40.22;99607.00;5112528;28;20088;-30
2022/04/08 06:14:48;;;;;;;0.20;0.20;;;;;;;19.11;40.31;99595.16;5095674;28;20512;-30
2022/04/08 06:17:13;;;;;;;0.20;0.20;;;;;;;19.11;40.18;99603.44;5101183;28;20043;-29
2022/04/08 06:19:39;;;;;;;0.20;0.20;;;;;;;19.11;40.13;99597.91;5114506;27;20524;-34
2022/04/08 06:22:04;;;;;;;0.20;0.20;;;;;;;19.12;40.29;99591.25;5116419;28;20040;-30
2022/04/08 06:24:30;;;;;;;0.20;0.20;;;;;;;19.10;40.08;99593.53;5119608;28;20645;-31
2022/04/08 06:26:56;;;;;;;0.20;0.20;;;;;;;19.11;40.26;99594.34;5114904;28;20069;-31
2022/04/08 06:29:21;;;;;;;0.20;0.20;;;;;;;19.12;40.50;99593.22;5114569;28;20058;-30
2022/04/08 06:31:47;;;;;;;0.20;0.20;;;;;;;19.12;40.15;99595.97;5115855;28;20055;-31
2022/04/08 06:34:13;;;;;;;0.20;0.20;;;;;;;19.11;40.15;99594.34;5116512;28;20466;-29
2022/04/08 06:36:39;;;;;;;0.20;0.20;;;;;;;19.11;40.14;99594.34;5115870;28;21378;-29
2022/04/08 06:39:05;;;;;;;0.20;0.20;;;;;;;19.11;40.32;99595.16;5109783;28;20396;-31
2022/04/08 06:41:31;;;;;;;0.20;0.20;;;;;;;19.11;40.07;99586.88;5115448;28;20139;-29
2022/04/08 06:43:56;;;;;;;0.20;0.20;;;;;;;19.12;40.23;99598.72;5107349;28;20545;-30
2022/04/08 06:46:22;;;;;;;0.20;0.20;;;;;;;19.11;40.04;99594.34;5115628;28;20386;-31
2022/04/08 06:48:48;;;;;;;0.20;0.20;;;;;;;19.10;40.35;99588.00;5110041;28;20060;-29
2022/04/08 06:51:14;;;;;;;0.20;0.20;;;;;;;19.10;39.97;99595.47;5115285;28;20058;-29
2022/04/08 06:53:40;;;;;;;0.20;0.20;;;;;;;19.11;40.12;99595.16;5112946;28;20039;-31
2022/04/08 06:56:06;;;;;;;0.20;0.20;;;;;;;19.11;40.22;99588.81;5114277;28;20376;-29
2022/04/08 06:58:38;;;;;;;0.20;0.20;;;;;;;19.10;40.35;99589.97;5115874;28;20059;-29
2022/04/08 07:01:05;;;;;;;0.20;0.20;;;;;;;19.12;40.38;99590.44;5110956;28;20506;-31
2022/04/08 07:03:31;;;;;;;0.20;0.20;;;;;;;19.11;40.18;99581.34;5110335;28;20134;-31
2022/04/08 07:05:57;;;;;;;0.20;0.20;;;;;;;19.10;40.02;99563.19;5107502;28;20100;-30
2022/04/08 07:08:23;;;;;;;0.20;0.20;;;;;;;19.13;40.03;99570.00;5086539;28;20092;-31
2022/04/08 07:10:48;;;;;;;0.20;0.20;;;;;;;19.10;40.58;99563.19;5104293;28;20044;-30
2022/04/08 07:13:14;;;;;;;0.20;0.20;;;;;;;19.15;40.14;99571.31;5095806;28;20035;-31
2022/04/08 07:15:40;;;;;;;0.20;0.20;;;;;;;19.17;40.10;99571.00;5111597;28;20092;-31
2022/04/08 07:18:05;;;;;;;0.20;0.20;;;;;;;19.15;40.37;99563.03;5112663;27;20052;-30
2022/04/08 07:20:31;;;;;;;0.20;0.20;;;;;;;19.15;40.20;99562.25;5091655;28;20541;-30
2022/04/08 07:23:02;;;;;;;0.20;0.20;;;;;;;19.14;40.25;99561.44;5116908;27;20147;-29
2022/04/08 07:25:29;;;;;;;0.20;0.20;;;;;;;19.14;40.34;99569.69;5104014;28;20044;-30
2022/04/08 07:27:56;;;;;;;0.20;0.20;;;;;;;19.14;40.34;99563.38;5083447;28;20095;-30
2022/04/08 07:30:22;;;;;;;0.20;0.20;;;;;;;19.15;40.40;99562.25;5097608;28;20125;-30
2022/04/08 07:32:52;;;;;;;0.20;0.20;;;;;;;19.16;40.23;99574.91;5109609;28;20040;-29
2022/04/08 07:35:18;;;;;;;0.20;0.20;;;;;;;19.15;40.21;99565.00;5085241;28;20078;-30
2022/04/08 07:37:44;;;;;;;0.10;0.10;;;;;;;19.14;40.17;99577.16;5110016;27;20134;-31
2022/04/08 07:40:11;;;;;;;0.20;0.20;;;;;;;19.14;40.38;99577.16;5116155;28;20092;-29
2022/04/08 07:42:37;;;;;;;0.20;0.20;;;;;;;19.13;40.30;99579.13;5111907;27;20138;-30
2022/04/08 07:45:04;;;;;;;0.20;0.20;;;;;;;19.14;40.49;99579.94;5116560;28;20054;-29
2022/04/08 07:47:30;;;;;;;0.20;0.20;;;;;;;19.14;40.26;99569.69;5103088;28;20054;-31
2022/04/08 07:49:57;;;;;;;0.20;0.20;;;;;;;19.14;40.47;99563.38;5089466;28;20047;-29
2022/04/08 07:52:23;;;;;;;0.20;0.20;;;;;;;19.14;40.09;99561.44;5110337;28;20508;-30
2022/04/08 07:54:49;;;;;;;0.20;0.20;;;;;;;19.15;40.44;99567.75;5108480;28;20471;-30
2022/04/08 07:57:15;;;;;;;0.20;0.20;;;;;;;19.15;40.38;99565.00;5111901;28;21323;-29
2022/04/08 07:59:40;;;;;;;0.20;0.20;;;;;;;19.15;40.10;99571.31;5110711;28;20054;-29
2022/04/08 08:02:06;;;;;;;0.20;0.20;;;;;;;19.15;40.07;99570.50;5117886;28;20039;-30
2022/04/08 08:04:32;;;;;;;0.20;0.20;;;;;;;19.14;40.16;99564.19;5117731;28;20043;-30
2022/04/08 08:06:57;;;;;;;0.20;0.20;;;;;;;19.15;40.15;99562.25;5108906;28;20062;-31
2022/04/08 08:09:23;;;;;;;0.20;0.20;;;;;;;19.15;40.36;99560.28;5111654;28;20043;-28
2022/04/08 08:12:09;;;;;;;0.20;0.20;;;;;;;19.14;40.39;99569.69;5088985;28;20121;-30
2022/04/08 08:14:35;;;;;;;0.20;0.20;;;;;;;19.15;40.06;99562.25;5114279;27;20495;-29
2022/04/08 08:17:01;;;;;;;0.20;0.20;;;;;;;19.15;40.07;99556.72;5113333;27;20048;-30
2022/04/08 08:19:28;;;;;;;0.20;0.20;;;;;;;19.13;40.13;99561.72;5111098;28;20184;-30
2022/04/08 08:21:53;;;;;;;0.20;0.20;;;;;;;19.13;40.23;99553.44;5115443;28;20140;-30
2022/04/08 08:24:19;;;;;;;0.20;0.20;;;;;;;19.14;39.98;99557.84;5114457;28;20044;-30
2022/04/08 08:26:44;;;;;;;0.20;0.20;;;;;;;19.14;40.24;99555.09;5113614;28;20047;-33
2022/04/08 08:29:10;;;;;;;0.20;0.20;;;;;;;19.14;40.35;99555.09;5115336;28;20062;-29
2022/04/08 08:31:36;;;;;;;0.20;0.20;;;;;;;19.14;40.33;99555.91;5116502;28;20043;-30
2022/04/08 08:34:02;;;;;;;0.20;0.20;;;;;;;19.15;40.15;99556.72;5119097;28;20135;-30
2022/04/08 08:36:29;;;;;;;0.20;0.20;;;;;;;19.13;40.20;99551.53;5121258;28;20386;-30
2022/04/08 08:38:55;;;;;;;0.20;0.20;;;;;;;19.14;40.24;99547.63;5119015;28;20126;-30
2022/04/08 08:41:22;;;;;;;0.20;0.20;;;;;;;19.13;40.32;99539.63;5118392;28;20050;-29
2022/04/08 08:43:49;;;;;;;0.20;0.20;;;;;;;19.14;40.07;99538.53;5119204;28;20469;-30
2022/04/08 08:46:16;;;;;;;0.20;0.20;;;;;;;19.15;40.31;99534.63;5113961;28;20043;-30
2022/04/08 08:48:43;;;;;;;0.20;0.20;;;;;;;19.14;40.33;99538.53;5110703;28;20086;-31
2022/04/08 08:51:11;;;;;;;0.20;0.20;;;;;;;19.14;40.15;99533.84;5113850;28;20129;-30
2022/04/08 08:53:37;;;;;;;0.20;0.20;;;;;;;19.14;40.23;99538.53;5097562;28;20138;-31
2022/04/08 08:56:05;;;;;;;0.20;0.20;;;;;;;19.13;40.08;99526.69;5113189;28;20044;-30
2022/04/08 08:58:32;;;;;;;0.20;0.20;;;;;;;19.14;40.08;99533.00;5099524;27;20559;-31
2022/04/08 09:00:58;;;;;;;0.20;0.20;;;;;;;19.14;40.20;99522.78;5113799;28;20095;-30
2022/04/08 09:03:29;;;;;;;0.20;0.20;;;;;;;19.14;40.22;99517.28;5116194;28;20043;-30
2022/04/08 09:06:04;;;;;;;0.20;0.20;;;;;;;19.14;40.19;99511.75;5113199;28;20541;-31
2022/04/08 09:08:34;;;;;;;;;;;;;;;19.13;40.28;99515.66;5098278;28;20124;-30
2022/04/08 09:10:59;;;;;;;0.20;0.20;;;;;;;19.12;40.32;99502.97;5119249;28;20021;-30
2022/04/08 09:13:26;;;;;;;0.20;0.20;;;;;;;19.12;40.24;99494.69;5114658;28;20391;-30
2022/04/08 09:15:55;;;;;;;0.20;0.20;;;;;;;19.13;40.16;99493.56;5115387;27;20089;-29
2022/04/08 09:18:21;;;;;;;0.20;0.20;;;;;;;19.14;40.18;99494.38;5118444;28;20103;-31
2022/04/08 09:20:49;;;;;;;0.20;0.20;;;;;;;19.13;40.00;99488.06;5115854;28;20047;-29
2022/04/08 09:23:16;;;;;;;0.20;0.20;;;;;;;19.13;40.17;99477.00;5120288;28;20051;-31
2022/04/08 09:25:42;;;;;;;0.20;0.20;;;;;;;19.13;40.29;99470.66;5097768;28;20173;-29
2022/04/08 09:28:11;;;;;;;0.22;0.22;;;;;;;19.13;40.08;99470.66;5113048;27;20048;-30
2022/04/08 09:30:36;;;;;;;;;;;;;;;19.12;40.25;99464.31;5096344;28;20082;-30
2022/04/08 09:33:20;;;;;;;0.20;0.20;;;;;;;19.13;40.00;99463.22;5117016;28;19934;-31
2022/04/08 09:35:48;;;;;;;0.20;0.20;;;;;;;19.12;40.26;99458.81;5093594;28;20458;-30
2022/04/08 09:38:22;;;;;;;0.20;0.20;;;;;;;19.13;40.16;99454.09;5089409;28;20131;-30
2022/04/08 09:40:48;;;;;;;0.20;0.20;;;;;;;19.12;39.96;99458.81;5093644;28;20126;-32
2022/04/08 09:43:15;;;;;;;0.20;0.20;;;;;;;19.14;40.21;99458.50;5090416;28;20077;-29
2022/04/08 09:45:41;;;;;;;0.20;0.20;;;;;;;19.14;40.03;99453.00;5094259;28;20134;-30
2022/04/08 09:48:08;;;;;;;0.20;0.20;;;;;;;19.13;39.99;99454.94;5109934;28;20119;-29
2022/04/08 09:50:35;;;;;;;0.20;0.20;;;;;;;19.13;40.00;99446.66;5113103;28;20422;-31
2022/04/08 09:53:03;;;;;;;0.20;0.20;;;;;;;19.13;39.99;99451.34;5098659;28;20542;-29
2022/04/08 09:55:28;;;;;;;0.20;0.20;;;;;;;19.12;40.06;99442.25;5094962;28;20481;-31
2022/04/08 09:57:58;;;;;;;0.20;0.20;;;;;;;19.13;39.91;99438.38;5091985;28;20043;-32
2022/04/08 10:00:25;;;;;;;0.20;0.20;;;;;;;19.14;40.21;99442.75;5098960;28;20078;-30
2022/04/08 10:02:54;;;;;;;0.20;0.20;;;;;;;19.13;40.09;99449.41;5077170;28;20623;-31
2022/04/08 10:05:22;;;;;;;0.20;0.20;;;;;;;19.15;39.87;99438.06;5117227;28;20510;-29
2022/04/08 10:07:51;;;;;;;0.20;0.20;;;;;;;19.19;39.75;99441.81;5096514;28;20067;-30
2022/04/08 10:10:24;;;;;;;0.20;0.20;;;;;;;19.22;39.74;99446.72;5098069;28;20039;-29
2022/04/08 10:13:14;;;;;;;0.20;0.20;;;;;;;19.20;39.94;99444.25;5111192;28;20591;-30
2022/04/08 10:15:42;;;;;;;0.20;0.20;;;;;;;19.19;40.10;99441.81;5105247;28;20915;-30
2022/04/08 10:18:08;;;;;;;0.20;0.20;;;;;;;19.19;39.80;99448.16;5112103;27;20094;-29
2022/04/08 10:20:36;;;;;;;0.20;0.20;;;;;;;19.19;39.94;99447.34;5113120;28;20474;-33
2022/04/08 10:23:04;;;;;;;0.20;0.20;;;;;;;19.19;40.20;99455.59;5118912;28;20470;-33
2022/04/08 10:25:36;;;;;;;0.20;0.20;;;;;;;19.21;40.21;99462.47;5081380;28;20077;-30
2022/04/08 10:28:02;;;;;;;0.20;0.20;;;;;;;19.20;40.20;99452.53;5074080;28;20131;-31
2022/04/08 10:30:27;;;;;;;0.20;0.20;;;;;;;19.21;39.90;99459.69;5109612;28;20122;-30
2022/04/08 10:33:03;;;;;;;0.20;0.20;;;;;;;19.22;40.07;99455.81;5106816;28;20051;-30
2022/04/08 10:35:29;;;;;;;0.20;0.20;;;;;;;19.18;40.08;99451.22;5092806;28;20075;-30
2022/04/08 10:38:04;;;;;;;0.20;0.20;;;;;;;19.28;39.87;99448.19;5090122;28;20069;-31
2022/04/08 10:40:32;;;;;;;0.20;0.20;;;;;;;19.29;39.63;99441.53;5089866;28;20139;-34
2022/04/08 10:43:00;;;;;;;0.20;0.20;;;;;;;19.34;39.55;99446.09;5091939;28;20509;-31
2022/04/08 10:45:26;;;;;;;0.20;0.20;;;;;;;19.35;39.71;99437.50;5093419;28;20517;-31
2022/04/08 10:47:54;;;;;;;;;;;;;;;19.37;39.70;99434.44;5110774;28;20184;-31
2022/04/08 10:50:25;;;;;;;0.20;0.20;;;;;;;19.40;39.53;99428.28;5115225;28;19935;-31
2022/04/08 10:53:03;;;;;;;0.20;0.20;;;;;;;19.41;39.72;99422.44;5112397;28;20087;-32
2022/04/08 10:55:28;;;;;;;0.20;0.20;;;;;;;19.41;39.84;99416.09;5093003;28;20047;-33
2022/04/08 10:57:59;;;;;;;0.20;0.20;;;;;;;19.41;39.69;99413.34;5111857;27;20203;-31
2022/04/08 11:00:25;;;;;;;0.20;0.20;;;;;;;19.42;39.43;99407.47;5115216;28;20071;-30
2022/04/08 11:02:54;;;;;;;0.20;0.20;;;;;;;19.43;39.51;99392.56;5093132;28;20055;-31
2022/04/08 11:05:20;;;;;;;0.20;0.20;;;;;;;19.44;39.72;99396.13;5095890;28;20039;-31
2022/04/08 11:07:48;;;;;;;0.20;0.20;;;;;;;19.42;38.69;99385.41;5114796;28;20478;-38
2022/04/08 11:10:16;;;;;;;0.20;0.20;;;;;;;19.43;38.82;99375.16;5115190;28;20130;-32
2022/04/08 11:12:44;;;;;;;0.20;0.20;;;;;;;19.51;39.05;99382.66;5092495;28;20086;-31
2022/04/08 11:15:15;;;;;;;0.20;0.20;;;;;;;19.51;39.02;99366.91;5080744;28;20070;-31
2022/04/08 11:17:41;;;;;;;0.20;0.20;;;;;;;19.47;38.46;99365.09;5092555;28;20490;-31
2022/04/08 11:20:10;;;;;;;0.20;0.20;;;;;;;19.53;38.47;99356.38;5110123;28;20126;-33
2022/04/08 11:22:41;;;;;;;0.20;0.20;;;;;;;19.54;38.78;99357.19;5113148;28;20573;-32
2022/04/08 11:25:09;;;;;;;0.20;0.20;;;;;;;19.62;38.92;99359.19;5094383;28;20070;-31
2022/04/08 11:27:40;;;;;;;0.20;0.20;;;;;;;19.63;38.88;99363.56;5094001;28;20066;-31
2022/04/08 11:30:07;;;;;;;0.20;0.20;;;;;;;19.64;38.56;99361.63;5116699;27;20042;-31
2022/04/08 11:32:33;;;;;;;0.10;0.10;;;;;;;19.64;38.93;99367.13;5110557;28;20058;-32